sensor_id;sensor_type;location;lat;lon;timestamp;temperature;humidity
40023;DHT22;25713;-35.352;149.036;2023-12-29T00:01:38;20.60;91.40
40023;DHT22;25713;-35.352;149.036;2023-12-29T00:04:10;20.60;91.60
40023;DHT22;25713;-35.352;149.036;2023-12-29T00:06:39;20.60;91.60
40023;DHT22;25713;-35.352;149.036;2023-12-29T00:09:09;20.60;91.50
40023;DHT22;25713;-35.352;149.036;2023-12-29T00:11:38;20.60;91.30
40023;DHT22;25713;-35.352;149.036;2023-12-29T00:14:08;20.60;91.60
40023;DHT22;25713;-35.352;149.036;2023-12-29T00:16:38;20.60;91.90
40023;DHT22;25713;-35.352;149.036;2023-12-29T00:19:07;20.60;91.90
40023;DHT22;25713;-35.352;149.036;2023-12-29T00:21:39;20.60;91.80
40023;DHT22;25713;-35.352;149.036;2023-12-29T00:24:07;20.60;91.40
40023;DHT22;25713;-35.352;149.036;2023-12-29T00:26:37;20.60;91.30
40023;DHT22;25713;-35.352;149.036;2023-12-29T00:29:07;20.70;91.50
40023;DHT22;25713;-35.352;149.036;2023-12-29T00:31:36;20.70;91.20
40023;DHT22;25713;-35.352;149.036;2023-12-29T00:34:05;20.70;90.80
40023;DHT22;25713;-35.352;149.036;2023-12-29T00:36:35;20.70;90.30
40023;DHT22;25713;-35.352;149.036;2023-12-29T00:39:08;20.70;90.10
40023;DHT22;25713;-35.352;149.036;2023-12-29T00:41:37;20.80;89.60
40023;DHT22;25713;-35.352;149.036;2023-12-29T00:44:07;20.70;90.60
40023;DHT22;25713;-35.352;149.036;2023-12-29T00:46:38;20.80;90.70
40023;DHT22;25713;-35.352;149.036;2023-12-29T00:49:07;20.80;90.90
40023;DHT22;25713;-35.352;149.036;2023-12-29T00:51:41;20.70;90.60
40023;DHT22;25713;-35.352;149.036;2023-12-29T00:54:13;20.80;90.50
40023;DHT22;25713;-35.352;149.036;2023-12-29T00:56:48;20.80;90.50
40023;DHT22;25713;-35.352;149.036;2023-12-29T00:59:19;20.80;90.10
40023;DHT22;25713;-35.352;149.036;2023-12-29T01:01:49;20.80;90.10
40023;DHT22;25713;-35.352;149.036;2023-12-29T01:04:18;20.80;90.50
40023;DHT22;25713;-35.352;149.036;2023-12-29T01:06:48;20.80;90.40
40023;DHT22;25713;-35.352;149.036;2023-12-29T01:09:21;20.80;90.70
40023;DHT22;25713;-35.352;149.036;2023-12-29T01:11:51;20.80;90.80
40023;DHT22;25713;-35.352;149.036;2023-12-29T01:14:20;20.80;90.80
40023;DHT22;25713;-35.352;149.036;2023-12-29T01:16:50;20.80;90.50
40023;DHT22;25713;-35.352;149.036;2023-12-29T01:19:20;20.80;90.20
40023;DHT22;25713;-35.352;149.036;2023-12-29T01:21:49;20.80;90.00
40023;DHT22;25713;-35.352;149.036;2023-12-29T01:24:21;20.80;90.00
40023;DHT22;25713;-35.352;149.036;2023-12-29T01:26:50;20.90;90.00
40023;DHT22;25713;-35.352;149.036;2023-12-29T01:29:21;21.00;90.10
40023;DHT22;25713;-35.352;149.036;2023-12-29T01:31:51;20.90;89.80
40023;DHT22;25713;-35.352;149.036;2023-12-29T01:34:21;21.00;90.00
40023;DHT22;25713;-35.352;149.036;2023-12-29T01:36:50;21.00;89.40
40023;DHT22;25713;-35.352;149.036;2023-12-29T01:39:22;21.00;88.20
40023;DHT22;25713;-35.352;149.036;2023-12-29T01:41:51;20.90;86.80
40023;DHT22;25713;-35.352;149.036;2023-12-29T01:44:22;20.90;88.10
40023;DHT22;25713;-35.352;149.036;2023-12-29T01:46:54;20.90;86.60
40023;DHT22;25713;-35.352;149.036;2023-12-29T01:49:24;20.90;86.60
40023;DHT22;25713;-35.352;149.036;2023-12-29T01:51:55;21.00;86.30
40023;DHT22;25713;-35.352;149.036;2023-12-29T01:54:29;20.90;87.40
40023;DHT22;25713;-35.352;149.036;2023-12-29T01:57:01;20.90;85.70
40023;DHT22;25713;-35.352;149.036;2023-12-29T01:59:32;21.00;86.00
40023;DHT22;25713;-35.352;149.036;2023-12-29T02:02:02;21.00;85.80
40023;DHT22;25713;-35.352;149.036;2023-12-29T02:04:33;21.00;85.70
40023;DHT22;25713;-35.352;149.036;2023-12-29T02:07:03;21.10;84.00
40023;DHT22;25713;-35.352;149.036;2023-12-29T02:09:36;21.10;81.50
40023;DHT22;25713;-35.352;149.036;2023-12-29T02:12:07;21.10;81.30
40023;DHT22;25713;-35.352;149.036;2023-12-29T02:14:36;21.10;80.60
40023;DHT22;25713;-35.352;149.036;2023-12-29T02:17:12;21.00;82.60
40023;DHT22;25713;-35.352;149.036;2023-12-29T02:19:46;20.90;82.10
40023;DHT22;25713;-35.352;149.036;2023-12-29T02:22:16;20.90;83.30
40023;DHT22;25713;-35.352;149.036;2023-12-29T02:24:50;20.90;82.50
40023;DHT22;25713;-35.352;149.036;2023-12-29T02:27:31;20.80;82.40
40023;DHT22;25713;-35.352;149.036;2023-12-29T02:30:10;20.80;81.70
40023;DHT22;25713;-35.352;149.036;2023-12-29T02:32:41;20.80;81.70
40023;DHT22;25713;-35.352;149.036;2023-12-29T02:35:13;20.80;82.20
40023;DHT22;25713;-35.352;149.036;2023-12-29T02:37:44;20.80;81.90
40023;DHT22;25713;-35.352;149.036;2023-12-29T02:40:17;20.80;80.80
40023;DHT22;25713;-35.352;149.036;2023-12-29T02:42:48;20.80;80.70
40023;DHT22;25713;-35.352;149.036;2023-12-29T02:45:18;20.80;81.90
40023;DHT22;25713;-35.352;149.036;2023-12-29T02:47:50;20.80;83.80
40023;DHT22;25713;-35.352;149.036;2023-12-29T02:50:18;20.70;82.70
40023;DHT22;25713;-35.352;149.036;2023-12-29T02:52:48;20.70;81.90
40023;DHT22;25713;-35.352;149.036;2023-12-29T02:55:21;20.80;79.80
40023;DHT22;25713;-35.352;149.036;2023-12-29T02:57:50;20.70;79.60
40023;DHT22;25713;-35.352;149.036;2023-12-29T03:00:20;20.80;79.20
40023;DHT22;25713;-35.352;149.036;2023-12-29T03:02:49;20.80;79.60
40023;DHT22;25713;-35.352;149.036;2023-12-29T03:05:19;20.70;80.10
40023;DHT22;25713;-35.352;149.036;2023-12-29T03:07:48;20.70;81.30
40023;DHT22;25713;-35.352;149.036;2023-12-29T03:10:21;20.80;81.70
40023;DHT22;25713;-35.352;149.036;2023-12-29T03:12:51;20.80;80.50
40023;DHT22;25713;-35.352;149.036;2023-12-29T03:15:21;20.90;80.40
40023;DHT22;25713;-35.352;149.036;2023-12-29T03:17:50;20.90;81.40
40023;DHT22;25713;-35.352;149.036;2023-12-29T03:20:20;21.00;82.60
40023;DHT22;25713;-35.352;149.036;2023-12-29T03:22:49;21.10;81.40
40023;DHT22;25713;-35.352;149.036;2023-12-29T03:25:22;21.20;81.90
40023;DHT22;25713;-35.352;149.036;2023-12-29T03:27:52;21.30;81.70
40023;DHT22;25713;-35.352;149.036;2023-12-29T03:30:24;21.30;81.30
40023;DHT22;25713;-35.352;149.036;2023-12-29T03:32:54;21.20;79.90
40023;DHT22;25713;-35.352;149.036;2023-12-29T03:35:23;21.20;81.00
40023;DHT22;25713;-35.352;149.036;2023-12-29T03:37:53;21.10;80.70
40023;DHT22;25713;-35.352;149.036;2023-12-29T03:40:29;21.10;80.90
40023;DHT22;25713;-35.352;149.036;2023-12-29T03:42:58;21.00;81.30
40023;DHT22;25713;-35.352;149.036;2023-12-29T03:45:28;21.00;81.50
40023;DHT22;25713;-35.352;149.036;2023-12-29T03:48:00;20.90;82.00
40023;DHT22;25713;-35.352;149.036;2023-12-29T03:50:28;20.90;80.60
40023;DHT22;25713;-35.352;149.036;2023-12-29T03:52:58;20.80;81.00
40023;DHT22;25713;-35.352;149.036;2023-12-29T03:55:31;20.80;81.90
40023;DHT22;25713;-35.352;149.036;2023-12-29T03:58:00;20.80;82.90
40023;DHT22;25713;-35.352;149.036;2023-12-29T04:00:31;20.70;82.70
40023;DHT22;25713;-35.352;149.036;2023-12-29T04:03:01;20.70;82.60
40023;DHT22;25713;-35.352;149.036;2023-12-29T04:05:30;20.70;82.70
40023;DHT22;25713;-35.352;149.036;2023-12-29T04:08:00;20.70;83.40
40023;DHT22;25713;-35.352;149.036;2023-12-29T04:10:33;20.60;83.90
40023;DHT22;25713;-35.352;149.036;2023-12-29T04:13:03;20.70;83.70
40023;DHT22;25713;-35.352;149.036;2023-12-29T04:15:32;20.70;84.50
40023;DHT22;25713;-35.352;149.036;2023-12-29T04:18:02;20.70;84.80
40023;DHT22;25713;-35.352;149.036;2023-12-29T04:20:32;20.60;85.40
40023;DHT22;25713;-35.352;149.036;2023-12-29T04:23:01;20.70;85.80
40023;DHT22;25713;-35.352;149.036;2023-12-29T04:25:33;20.70;86.50
40023;DHT22;25713;-35.352;149.036;2023-12-29T04:28:02;20.70;85.20
40023;DHT22;25713;-35.352;149.036;2023-12-29T04:30:32;20.70;84.70
40023;DHT22;25713;-35.352;149.036;2023-12-29T04:33:01;20.70;85.60
40023;DHT22;25713;-35.352;149.036;2023-12-29T04:35:32;20.70;86.10
40023;DHT22;25713;-35.352;149.036;2023-12-29T04:38:02;20.70;84.70
40023;DHT22;25713;-35.352;149.036;2023-12-29T04:40:34;20.70;85.60
40023;DHT22;25713;-35.352;149.036;2023-12-29T04:43:03;20.70;85.20
40023;DHT22;25713;-35.352;149.036;2023-12-29T04:45:33;20.70;85.60
40023;DHT22;25713;-35.352;149.036;2023-12-29T04:48:03;20.70;85.90
40023;DHT22;25713;-35.352;149.036;2023-12-29T04:50:32;20.70;85.80
40023;DHT22;25713;-35.352;149.036;2023-12-29T04:53:02;20.70;86.50
40023;DHT22;25713;-35.352;149.036;2023-12-29T04:55:35;20.70;86.50
40023;DHT22;25713;-35.352;149.036;2023-12-29T04:58:05;20.70;87.10
40023;DHT22;25713;-35.352;149.036;2023-12-29T05:00:34;20.70;87.20
40023;DHT22;25713;-35.352;149.036;2023-12-29T05:03:04;20.70;87.40
40023;DHT22;25713;-35.352;149.036;2023-12-29T05:05:33;20.70;87.30
40023;DHT22;25713;-35.352;149.036;2023-12-29T05:08:03;20.60;86.60
40023;DHT22;25713;-35.352;149.036;2023-12-29T05:10:35;20.60;86.20
40023;DHT22;25713;-35.352;149.036;2023-12-29T05:13:05;20.60;84.40
40023;DHT22;25713;-35.352;149.036;2023-12-29T05:15:35;20.60;85.30
40023;DHT22;25713;-35.352;149.036;2023-12-29T05:18:05;20.50;83.70
40023;DHT22;25713;-35.352;149.036;2023-12-29T05:20:34;20.50;84.50
40023;DHT22;25713;-35.352;149.036;2023-12-29T05:23:04;20.40;85.30
40023;DHT22;25713;-35.352;149.036;2023-12-29T05:25:35;20.40;84.70
40023;DHT22;25713;-35.352;149.036;2023-12-29T05:28:05;20.30;84.70
40023;DHT22;25713;-35.352;149.036;2023-12-29T05:30:34;20.30;84.60
40023;DHT22;25713;-35.352;149.036;2023-12-29T05:33:04;20.30;85.20
40023;DHT22;25713;-35.352;149.036;2023-12-29T05:35:34;20.30;84.10
40023;DHT22;25713;-35.352;149.036;2023-12-29T05:38:03;20.30;84.50
40023;DHT22;25713;-35.352;149.036;2023-12-29T05:40:36;20.30;84.20
40023;DHT22;25713;-35.352;149.036;2023-12-29T05:43:06;20.30;85.40
40023;DHT22;25713;-35.352;149.036;2023-12-29T05:45:35;20.30;84.40
40023;DHT22;25713;-35.352;149.036;2023-12-29T05:48:05;20.30;83.60
40023;DHT22;25713;-35.352;149.036;2023-12-29T05:50:35;20.30;84.30
40023;DHT22;25713;-35.352;149.036;2023-12-29T05:53:04;20.20;83.80
40023;DHT22;25713;-35.352;149.036;2023-12-29T05:55:36;20.30;83.50
40023;DHT22;25713;-35.352;149.036;2023-12-29T05:58:06;20.20;83.90
40023;DHT22;25713;-35.352;149.036;2023-12-29T06:00:36;20.20;84.60
40023;DHT22;25713;-35.352;149.036;2023-12-29T06:03:06;20.20;84.40
40023;DHT22;25713;-35.352;149.036;2023-12-29T06:05:35;20.20;84.90
40023;DHT22;25713;-35.352;149.036;2023-12-29T06:08:05;20.20;84.60
40023;DHT22;25713;-35.352;149.036;2023-12-29T06:10:38;20.30;86.70
40023;DHT22;25713;-35.352;149.036;2023-12-29T06:13:08;20.30;84.30
40023;DHT22;25713;-35.352;149.036;2023-12-29T06:15:38;20.30;84.40
40023;DHT22;25713;-35.352;149.036;2023-12-29T06:18:07;20.20;84.80
40023;DHT22;25713;-35.352;149.036;2023-12-29T06:20:37;20.20;85.20
40023;DHT22;25713;-35.352;149.036;2023-12-29T06:23:06;20.20;85.20
40023;DHT22;25713;-35.352;149.036;2023-12-29T06:25:39;20.20;84.80
40023;DHT22;25713;-35.352;149.036;2023-12-29T06:28:09;20.20;85.60
40023;DHT22;25713;-35.352;149.036;2023-12-29T06:30:39;20.10;85.20
40023;DHT22;25713;-35.352;149.036;2023-12-29T06:33:08;20.10;85.30
40023;DHT22;25713;-35.352;149.036;2023-12-29T06:35:37;20.10;85.40
40023;DHT22;25713;-35.352;149.036;2023-12-29T06:38:07;20.10;84.90
40023;DHT22;25713;-35.352;149.036;2023-12-29T06:40:39;20.10;84.80
40023;DHT22;25713;-35.352;149.036;2023-12-29T06:43:08;20.10;85.80
40023;DHT22;25713;-35.352;149.036;2023-12-29T06:45:38;20.20;85.80
40023;DHT22;25713;-35.352;149.036;2023-12-29T06:48:07;20.20;86.10
40023;DHT22;25713;-35.352;149.036;2023-12-29T06:50:37;20.20;85.90
40023;DHT22;25713;-35.352;149.036;2023-12-29T06:53:07;20.10;85.30
40023;DHT22;25713;-35.352;149.036;2023-12-29T06:55:38;20.20;86.00
40023;DHT22;25713;-35.352;149.036;2023-12-29T06:58:08;20.20;86.00
40023;DHT22;25713;-35.352;149.036;2023-12-29T07:00:37;20.20;85.50
40023;DHT22;25713;-35.352;149.036;2023-12-29T07:03:07;20.20;85.30
40023;DHT22;25713;-35.352;149.036;2023-12-29T07:05:36;20.10;85.60
40023;DHT22;25713;-35.352;149.036;2023-12-29T07:08:06;20.10;84.40
40023;DHT22;25713;-35.352;149.036;2023-12-29T07:10:37;20.00;85.10
40023;DHT22;25713;-35.352;149.036;2023-12-29T07:13:07;20.00;86.10
40023;DHT22;25713;-35.352;149.036;2023-12-29T07:15:36;20.00;85.80
40023;DHT22;25713;-35.352;149.036;2023-12-29T07:18:06;20.00;86.80
40023;DHT22;25713;-35.352;149.036;2023-12-29T07:20:36;20.00;86.40
40023;DHT22;25713;-35.352;149.036;2023-12-29T07:23:05;20.00;85.20
40023;DHT22;25713;-35.352;149.036;2023-12-29T07:25:35;20.00;85.70
40023;DHT22;25713;-35.352;149.036;2023-12-29T07:28:06;20.00;86.20
40023;DHT22;25713;-35.352;149.036;2023-12-29T07:30:35;20.00;86.00
40023;DHT22;25713;-35.352;149.036;2023-12-29T07:33:05;20.00;85.90
40023;DHT22;25713;-35.352;149.036;2023-12-29T07:35:34;20.00;86.40
40023;DHT22;25713;-35.352;149.036;2023-12-29T07:38:04;20.00;86.30
40023;DHT22;25713;-35.352;149.036;2023-12-29T07:40:33;20.00;86.00
40023;DHT22;25713;-35.352;149.036;2023-12-29T07:43:05;20.00;85.70
40023;DHT22;25713;-35.352;149.036;2023-12-29T07:45:34;20.00;85.80
40023;DHT22;25713;-35.352;149.036;2023-12-29T07:48:04;20.00;85.80
40023;DHT22;25713;-35.352;149.036;2023-12-29T07:50:34;20.00;86.30
40023;DHT22;25713;-35.352;149.036;2023-12-29T07:53:04;20.00;86.90
40023;DHT22;25713;-35.352;149.036;2023-12-29T07:55:36;20.10;86.40
40023;DHT22;25713;-35.352;149.036;2023-12-29T07:58:09;20.10;87.00
40023;DHT22;25713;-35.352;149.036;2023-12-29T08:00:39;20.10;86.60
40023;DHT22;25713;-35.352;149.036;2023-12-29T08:03:08;20.10;85.70
40023;DHT22;25713;-35.352;149.036;2023-12-29T08:05:38;20.10;85.90
40023;DHT22;25713;-35.352;149.036;2023-12-29T08:08:07;20.00;85.50
40023;DHT22;25713;-35.352;149.036;2023-12-29T08:10:37;20.00;86.70
40023;DHT22;25713;-35.352;149.036;2023-12-29T08:13:08;20.10;86.90
40023;DHT22;25713;-35.352;149.036;2023-12-29T08:15:38;20.10;87.60
40023;DHT22;25713;-35.352;149.036;2023-12-29T08:18:07;20.10;87.40
40023;DHT22;25713;-35.352;149.036;2023-12-29T08:20:37;20.10;86.90
40023;DHT22;25713;-35.352;149.036;2023-12-29T08:23:06;20.10;86.10
40023;DHT22;25713;-35.352;149.036;2023-12-29T08:25:36;20.10;86.50
40023;DHT22;25713;-35.352;149.036;2023-12-29T08:28:09;20.10;87.10
40023;DHT22;25713;-35.352;149.036;2023-12-29T08:30:38;20.10;87.20
40023;DHT22;25713;-35.352;149.036;2023-12-29T08:33:08;20.10;87.20
40023;DHT22;25713;-35.352;149.036;2023-12-29T08:35:37;20.00;86.80
40023;DHT22;25713;-35.352;149.036;2023-12-29T08:38:06;20.10;88.20
40023;DHT22;25713;-35.352;149.036;2023-12-29T08:40:37;20.00;87.20
40023;DHT22;25713;-35.352;149.036;2023-12-29T08:43:10;20.10;87.00
40023;DHT22;25713;-35.352;149.036;2023-12-29T08:45:39;20.10;86.80
40023;DHT22;25713;-35.352;149.036;2023-12-29T08:48:09;20.10;86.80
40023;DHT22;25713;-35.352;149.036;2023-12-29T08:50:38;20.10;87.30
40023;DHT22;25713;-35.352;149.036;2023-12-29T08:53:08;20.10;87.30
40023;DHT22;25713;-35.352;149.036;2023-12-29T08:55:37;20.10;87.10
40023;DHT22;25713;-35.352;149.036;2023-12-29T08:58:10;20.10;87.40
40023;DHT22;25713;-35.352;149.036;2023-12-29T09:00:39;20.10;87.70
40023;DHT22;25713;-35.352;149.036;2023-12-29T09:03:09;20.10;87.10
40023;DHT22;25713;-35.352;149.036;2023-12-29T09:05:38;20.10;88.00
40023;DHT22;25713;-35.352;149.036;2023-12-29T09:08:08;20.10;87.40
40023;DHT22;25713;-35.352;149.036;2023-12-29T09:10:37;20.10;88.40
40023;DHT22;25713;-35.352;149.036;2023-12-29T09:13:11;20.10;88.40
40023;DHT22;25713;-35.352;149.036;2023-12-29T09:15:40;20.10;88.50
40023;DHT22;25713;-35.352;149.036;2023-12-29T09:18:10;20.00;88.10
40023;DHT22;25713;-35.352;149.036;2023-12-29T09:20:39;20.10;88.30
40023;DHT22;25713;-35.352;149.036;2023-12-29T09:23:09;20.00;88.40
40023;DHT22;25713;-35.352;149.036;2023-12-29T09:25:38;20.00;88.90
40023;DHT22;25713;-35.352;149.036;2023-12-29T09:28:11;20.00;87.80
40023;DHT22;25713;-35.352;149.036;2023-12-29T09:30:40;19.90;89.00
40023;DHT22;25713;-35.352;149.036;2023-12-29T09:33:10;19.90;88.80
40023;DHT22;25713;-35.352;149.036;2023-12-29T09:35:39;19.90;88.10
40023;DHT22;25713;-35.352;149.036;2023-12-29T09:38:09;19.80;88.90
40023;DHT22;25713;-35.352;149.036;2023-12-29T09:40:38;19.80;89.10
40023;DHT22;25713;-35.352;149.036;2023-12-29T09:43:12;19.80;89.00
40023;DHT22;25713;-35.352;149.036;2023-12-29T09:45:43;19.80;88.70
40023;DHT22;25713;-35.352;149.036;2023-12-29T09:48:17;19.80;88.40
40023;DHT22;25713;-35.352;149.036;2023-12-29T09:50:51;19.80;88.50
40023;DHT22;25713;-35.352;149.036;2023-12-29T09:53:19;19.80;88.40
40023;DHT22;25713;-35.352;149.036;2023-12-29T09:55:50;19.80;88.40
40023;DHT22;25713;-35.352;149.036;2023-12-29T09:58:27;19.80;87.60
40023;DHT22;25713;-35.352;149.036;2023-12-29T10:00:57;19.80;88.10
40023;DHT22;25713;-35.352;149.036;2023-12-29T10:03:26;19.80;88.20
40023;DHT22;25713;-35.352;149.036;2023-12-29T10:05:58;19.80;87.70
40023;DHT22;25713;-35.352;149.036;2023-12-29T10:08:29;19.80;88.20
40023;DHT22;25713;-35.352;149.036;2023-12-29T10:11:03;19.80;88.10
40023;DHT22;25713;-35.352;149.036;2023-12-29T10:13:38;19.80;87.80
40023;DHT22;25713;-35.352;149.036;2023-12-29T10:16:13;19.80;88.30
40023;DHT22;25713;-35.352;149.036;2023-12-29T10:18:48;19.70;88.00
40023;DHT22;25713;-35.352;149.036;2023-12-29T10:21:27;19.70;88.10
40023;DHT22;25713;-35.352;149.036;2023-12-29T10:24:02;19.80;88.10
40023;DHT22;25713;-35.352;149.036;2023-12-29T10:26:33;19.80;87.90
40023;DHT22;25713;-35.352;149.036;2023-12-29T10:29:05;19.80;88.20
40023;DHT22;25713;-35.352;149.036;2023-12-29T10:31:34;19.80;88.00
40023;DHT22;25713;-35.352;149.036;2023-12-29T10:34:21;19.70;87.50
40023;DHT22;25713;-35.352;149.036;2023-12-29T10:36:51;19.80;88.20
40023;DHT22;25713;-35.352;149.036;2023-12-29T10:39:21;19.60;88.60
40023;DHT22;25713;-35.352;149.036;2023-12-29T10:41:50;19.70;89.20
40023;DHT22;25713;-35.352;149.036;2023-12-29T10:44:33;19.70;88.80
40023;DHT22;25713;-35.352;149.036;2023-12-29T10:47:09;19.70;88.80
40023;DHT22;25713;-35.352;149.036;2023-12-29T10:49:39;19.70;88.70
40023;DHT22;25713;-35.352;149.036;2023-12-29T10:52:16;19.70;88.70
40023;DHT22;25713;-35.352;149.036;2023-12-29T10:54:45;19.80;89.00
40023;DHT22;25713;-35.352;149.036;2023-12-29T10:57:15;19.80;89.20
40023;DHT22;25713;-35.352;149.036;2023-12-29T10:59:55;19.70;89.00
40023;DHT22;25713;-35.352;149.036;2023-12-29T11:02:25;19.70;88.90
40023;DHT22;25713;-35.352;149.036;2023-12-29T11:05:02;19.70;88.70
40023;DHT22;25713;-35.352;149.036;2023-12-29T11:07:36;19.70;89.20
40023;DHT22;25713;-35.352;149.036;2023-12-29T11:10:07;19.70;89.00
40023;DHT22;25713;-35.352;149.036;2023-12-29T11:12:37;19.60;89.10
40023;DHT22;25713;-35.352;149.036;2023-12-29T11:15:09;19.60;88.80
40023;DHT22;25713;-35.352;149.036;2023-12-29T11:17:37;19.70;88.70
40023;DHT22;25713;-35.352;149.036;2023-12-29T11:20:08;19.70;88.80
40023;DHT22;25713;-35.352;149.036;2023-12-29T11:22:39;19.70;88.70
40023;DHT22;25713;-35.352;149.036;2023-12-29T11:25:09;19.70;89.00
40023;DHT22;25713;-35.352;149.036;2023-12-29T11:27:39;19.70;88.80
40023;DHT22;25713;-35.352;149.036;2023-12-29T11:30:15;19.70;88.90
40023;DHT22;25713;-35.352;149.036;2023-12-29T11:32:47;19.70;88.80
40023;DHT22;25713;-35.352;149.036;2023-12-29T11:35:23;19.70;88.70
40023;DHT22;25713;-35.352;149.036;2023-12-29T11:38:17;19.70;88.70
40023;DHT22;25713;-35.352;149.036;2023-12-29T11:40:52;19.70;88.80
40023;DHT22;25713;-35.352;149.036;2023-12-29T11:43:30;19.70;88.60
40023;DHT22;25713;-35.352;149.036;2023-12-29T11:46:02;19.80;89.10
40023;DHT22;25713;-35.352;149.036;2023-12-29T11:48:55;19.70;88.80
40023;DHT22;25713;-35.352;149.036;2023-12-29T11:51:35;19.70;89.10
40023;DHT22;25713;-35.352;149.036;2023-12-29T11:54:05;19.70;89.10
40023;DHT22;25713;-35.352;149.036;2023-12-29T11:56:40;19.70;88.90
40023;DHT22;25713;-35.352;149.036;2023-12-29T11:59:17;19.60;89.10
40023;DHT22;25713;-35.352;149.036;2023-12-29T12:01:53;19.60;89.70
40023;DHT22;25713;-35.352;149.036;2023-12-29T12:04:37;19.50;89.70
40023;DHT22;25713;-35.352;149.036;2023-12-29T12:07:07;19.50;89.30
40023;DHT22;25713;-35.352;149.036;2023-12-29T12:09:37;19.40;89.90
40023;DHT22;25713;-35.352;149.036;2023-12-29T12:12:07;19.30;89.80
40023;DHT22;25713;-35.352;149.036;2023-12-29T12:14:47;19.20;90.20
40023;DHT22;25713;-35.352;149.036;2023-12-29T12:17:32;19.10;90.00
40023;DHT22;25713;-35.352;149.036;2023-12-29T12:20:04;19.00;90.60
40023;DHT22;25713;-35.352;149.036;2023-12-29T12:22:36;19.00;90.50
40023;DHT22;25713;-35.352;149.036;2023-12-29T12:25:06;19.00;90.50
40023;DHT22;25713;-35.352;149.036;2023-12-29T12:27:38;19.00;90.00
40023;DHT22;25713;-35.352;149.036;2023-12-29T12:30:08;18.90;90.00
40023;DHT22;25713;-35.352;149.036;2023-12-29T12:32:40;18.90;89.80
40023;DHT22;25713;-35.352;149.036;2023-12-29T12:35:15;18.80;90.40
40023;DHT22;25713;-35.352;149.036;2023-12-29T12:37:44;18.80;90.50
40023;DHT22;25713;-35.352;149.036;2023-12-29T12:40:25;18.80;90.40
40023;DHT22;25713;-35.352;149.036;2023-12-29T12:42:55;18.80;90.00
40023;DHT22;25713;-35.352;149.036;2023-12-29T12:45:27;18.90;90.70
40023;DHT22;25713;-35.352;149.036;2023-12-29T12:48:02;18.80;90.10
40023;DHT22;25713;-35.352;149.036;2023-12-29T12:50:32;18.80;90.10
40023;DHT22;25713;-35.352;149.036;2023-12-29T12:53:02;18.70;90.20
40023;DHT22;25713;-35.352;149.036;2023-12-29T12:55:34;18.60;90.20
40023;DHT22;25713;-35.352;149.036;2023-12-29T12:58:04;18.60;90.60
40023;DHT22;25713;-35.352;149.036;2023-12-29T13:00:34;18.60;90.80
40023;DHT22;25713;-35.352;149.036;2023-12-29T13:03:05;18.70;90.80
40023;DHT22;25713;-35.352;149.036;2023-12-29T13:05:36;18.80;90.80
40023;DHT22;25713;-35.352;149.036;2023-12-29T13:08:07;18.80;90.40
40023;DHT22;25713;-35.352;149.036;2023-12-29T13:10:42;18.90;90.30
40023;DHT22;25713;-35.352;149.036;2023-12-29T13:13:11;19.00;90.40
40023;DHT22;25713;-35.352;149.036;2023-12-29T13:15:47;19.00;89.70
40023;DHT22;25713;-35.352;149.036;2023-12-29T13:18:26;19.00;90.00
40023;DHT22;25713;-35.352;149.036;2023-12-29T13:20:57;19.00;90.00
40023;DHT22;25713;-35.352;149.036;2023-12-29T13:23:27;19.10;90.20
40023;DHT22;25713;-35.352;149.036;2023-12-29T13:25:59;19.10;90.10
40023;DHT22;25713;-35.352;149.036;2023-12-29T13:28:29;19.10;90.10
40023;DHT22;25713;-35.352;149.036;2023-12-29T13:30:59;19.10;90.10
40023;DHT22;25713;-35.352;149.036;2023-12-29T13:33:36;19.10;90.10
40023;DHT22;25713;-35.352;149.036;2023-12-29T13:36:09;19.10;89.70
40023;DHT22;25713;-35.352;149.036;2023-12-29T13:38:43;19.20;89.20
40023;DHT22;25713;-35.352;149.036;2023-12-29T13:41:18;19.20;89.10
40023;DHT22;25713;-35.352;149.036;2023-12-29T13:43:48;19.10;88.50
40023;DHT22;25713;-35.352;149.036;2023-12-29T13:46:18;19.10;89.30
40023;DHT22;25713;-35.352;149.036;2023-12-29T13:48:52;19.20;89.00
40023;DHT22;25713;-35.352;149.036;2023-12-29T13:51:25;19.20;88.90
40023;DHT22;25713;-35.352;149.036;2023-12-29T13:53:59;19.20;89.30
40023;DHT22;25713;-35.352;149.036;2023-12-29T13:56:29;19.20;89.00
40023;DHT22;25713;-35.352;149.036;2023-12-29T13:58:59;19.20;88.80
40023;DHT22;25713;-35.352;149.036;2023-12-29T14:01:28;19.20;88.70
40023;DHT22;25713;-35.352;149.036;2023-12-29T14:04:08;19.20;88.70
40023;DHT22;25713;-35.352;149.036;2023-12-29T14:06:42;19.20;88.70
40023;DHT22;25713;-35.352;149.036;2023-12-29T14:09:16;19.10;88.90
40023;DHT22;25713;-35.352;149.036;2023-12-29T14:11:46;19.10;88.90
40023;DHT22;25713;-35.352;149.036;2023-12-29T14:14:22;19.10;88.70
40023;DHT22;25713;-35.352;149.036;2023-12-29T14:16:52;19.10;88.60
40023;DHT22;25713;-35.352;149.036;2023-12-29T14:19:25;19.20;88.30
40023;DHT22;25713;-35.352;149.036;2023-12-29T14:21:55;19.10;87.30
40023;DHT22;25713;-35.352;149.036;2023-12-29T14:24:25;19.10;88.00
40023;DHT22;25713;-35.352;149.036;2023-12-29T14:26:58;19.20;88.00
40023;DHT22;25713;-35.352;149.036;2023-12-29T14:29:28;19.10;88.70
40023;DHT22;25713;-35.352;149.036;2023-12-29T14:31:59;19.20;87.90
40023;DHT22;25713;-35.352;149.036;2023-12-29T14:34:30;19.20;87.90
40023;DHT22;25713;-35.352;149.036;2023-12-29T14:37:00;19.20;87.70
40023;DHT22;25713;-35.352;149.036;2023-12-29T14:39:30;19.20;87.80
40023;DHT22;25713;-35.352;149.036;2023-12-29T14:42:00;19.20;87.80
40023;DHT22;25713;-35.352;149.036;2023-12-29T14:44:29;19.20;87.60
40023;DHT22;25713;-35.352;149.036;2023-12-29T15:57:55;18.80;88.60
40023;DHT22;25713;-35.352;149.036;2023-12-29T16:00:25;18.80;88.70
40023;DHT22;25713;-35.352;149.036;2023-12-29T16:02:54;18.80;89.20
40023;DHT22;25713;-35.352;149.036;2023-12-29T16:05:24;18.90;89.00
40023;DHT22;25713;-35.352;149.036;2023-12-29T16:07:54;18.90;89.20
40023;DHT22;25713;-35.352;149.036;2023-12-29T16:10:23;18.90;89.30
40023;DHT22;25713;-35.352;149.036;2023-12-29T16:12:56;18.90;88.80
40023;DHT22;25713;-35.352;149.036;2023-12-29T16:15:25;18.90;89.00
40023;DHT22;25713;-35.352;149.036;2023-12-29T16:17:55;18.90;89.60
40023;DHT22;25713;-35.352;149.036;2023-12-29T16:20:25;18.90;89.00
40023;DHT22;25713;-35.352;149.036;2023-12-29T16:22:54;18.90;88.00